Time;durP1;ratioP1;P1;durP2;ratioP2;P2;SDS_P1;SDS_P2;PMS_P1;PMS_P2;Temp;Humidity;BMP_temperature;BMP_pressure;BME280_temperature;BME280_humidity;BME280_pressure;Samples;Min_cycle;Max_cycle;Signal;HPM_P1;HPM_P2
2022/10/14 00:02:10;;;;;;;;;13.00;11.33;;;;;15.75;90.13;101121.53;5037149;28;46399;-45
2022/10/14 00:04:36;;;;;;;;;9.00;7.33;;;;;15.78;90.00;101123.91;5038025;28;45299;-43
2022/10/14 00:07:01;;;;;;;;;12.67;12.00;;;;;15.78;89.61;101121.22;5037940;28;45209;-44
2022/10/14 00:09:26;;;;;;;;;13.00;10.00;;;;;15.78;90.01;101124.72;5037886;28;45372;-45
2022/10/14 00:11:52;;;;;;;;;9.33;9.33;;;;;15.79;89.99;101125.56;5037650;28;47037;-44
2022/10/14 00:14:19;;;;;;;;;21.00;14.00;;;;;15.79;89.80;101122.88;5037605;28;45440;-44
2022/10/14 00:16:47;;;;;;;;;9.67;7.33;;;;;15.68;89.01;101108.84;5037555;28;45305;-44
2022/10/14 00:19:13;;;;;;;;;11.67;11.67;;;;;15.79;89.79;101120.19;5037895;28;45375;-45
2022/10/14 00:21:41;;;;;;;;;9.67;9.33;;;;;15.79;90.00;101118.34;5037255;28;46398;-44
2022/10/14 00:24:07;;;;;;;;;12.00;11.00;;;;;15.79;90.30;101114.84;5037592;28;45553;-44
2022/10/14 00:26:36;;;;;;;;;10.00;4.67;;;;;15.79;90.44;101117.50;5037624;28;45460;-42
2022/10/14 00:29:04;;;;;;;;;17.33;12.67;;;;;15.80;90.35;101106.63;5037380;28;45225;-43
2022/10/14 00:31:29;;;;;;;;;17.67;11.33;;;;;15.81;90.08;101102.09;5037020;28;46531;-42
2022/10/14 00:33:55;;;;;;;;;13.00;11.00;;;;;15.81;90.29;101100.25;5036546;28;45230;-43
2022/10/14 00:36:23;;;;;;;;;12.67;12.33;;;;;15.82;90.32;101093.03;5037470;28;45328;-43
2022/10/14 00:38:48;;;;;;;;;12.33;11.00;;;;;15.78;90.10;101086.34;5037591;28;45399;-41
2022/10/14 00:41:21;;;;;;;;;10.67;10.33;;;;;15.81;90.27;101088.69;5036954;28;46538;-47
2022/10/14 00:43:49;;;;;;;;;10.00;10.00;;;;;15.81;90.36;101083.31;5037015;28;45195;-44
2022/10/14 00:46:14;;;;;;;;;11.00;9.00;;;;;15.81;90.33;101084.16;5037352;28;45368;-43
2022/10/14 00:48:40;;;;;;;;;9.67;9.00;;;;;15.82;90.37;101082.31;5037449;28;45393;-42
2022/10/14 00:51:05;;;;;;;;;11.00;10.00;;;;;15.82;90.42;101077.78;5037071;28;45746;-43
2022/10/14 00:53:31;;;;;;;;;11.33;9.67;;;;;15.79;90.74;101072.75;5037127;28;45773;-43
2022/10/14 00:55:57;;;;;;;;;7.33;7.33;;;;;15.42;90.83;101017.88;5036735;28;45349;-44
2022/10/14 00:58:22;;;;;;;;;7.00;7.00;;;;;15.80;90.45;101068.22;5037245;28;45231;-45
2022/10/14 01:00:47;;;;;;;;;10.00;10.00;;;;;15.82;90.42;101072.41;5036700;28;45570;-44
2022/10/14 01:03:22;;;;;;;;;11.00;7.67;;;;;15.81;90.03;101070.75;5036559;28;45482;-43
2022/10/14 01:06:17;;;;;;;;;10.33;7.33;;;;;15.81;90.25;101069.91;5037211;28;45308;-45
2022/10/14 01:08:57;;;;;;;;;13.67;8.00;;;;;15.83;89.87;101073.25;5037314;28;45150;-43
2022/10/14 01:11:39;;;;;;;;;6.00;6.00;;;;;15.83;90.06;101067.88;5036547;28;46219;-43
2022/10/14 01:14:24;;;;;;;;;10.00;7.67;;;;;15.85;89.55;101068.56;5036795;28;45292;-42
2022/10/14 01:16:55;;;;;;;;;14.33;5.00;;;;;15.84;89.95;101066.84;5036978;28;45452;-42
2022/10/14 01:20:06;;;;;;;;;15.00;8.67;;;;;15.83;89.25;101059.84;5036886;28;45346;-45
2022/10/14 01:22:56;;;;;;;;;9.00;7.00;;;;;15.84;89.79;101056.97;5036399;28;45281;-43
2022/10/14 01:25:31;;;;;;;;;7.67;6.67;;;;;15.86;90.00;101052.28;5036122;28;45534;-45
2022/10/14 01:27:57;;;;;;;;;5.67;5.67;;;;;15.86;89.74;101046.09;5036679;28;45462;-44
2022/10/14 01:30:25;;;;;;;;;6.67;5.00;;;;;15.87;90.24;101061.16;5037060;28;45186;-44
2022/10/14 01:33:06;;;;;;;;;6.00;4.33;;;;;15.87;89.03;101039.69;5036444;28;46115;-43
2022/10/14 01:35:57;;;;;;;;;6.00;4.00;;;;;15.87;89.93;101037.84;5036411;28;45423;-44
2022/10/14 01:38:29;;;;;;;;;6.67;5.00;;;;;15.86;89.86;101040.72;5036681;28;45462;-45
2022/10/14 01:41:02;;;;;;;;;6.33;4.33;;;;;15.83;88.73;101047.25;5039213;28;45420;-43
2022/10/14 01:43:30;;;;;;;;;10.67;5.33;;;;;15.80;89.51;101036.88;5040086;28;46289;-42
2022/10/14 01:45:59;;;;;;;;;2.67;2.67;;;;;15.78;88.94;101038.06;5040207;28;45428;-43
2022/10/14 01:48:30;;;;;;;;;8.33;8.00;;;;;15.80;89.25;101030.66;5040136;28;45331;-43
2022/10/14 01:50:59;;;;;;;;;9.67;3.67;;;;;15.83;89.61;101025.78;5040252;28;45462;-44
2022/10/14 01:53:33;;;;;;;;;4.67;4.67;;;;;15.84;89.08;101029.31;5039857;28;45387;-42
2022/10/14 01:56:01;;;;;;;;;7.33;5.00;;;;;15.83;89.63;101023.09;5039687;28;45402;-43
2022/10/14 01:58:30;;;;;;;;;5.33;3.00;;;;;15.85;89.87;101023.78;5039751;28;45347;-42
2022/10/14 02:00:55;;;;;;;;;4.33;4.00;;;;;15.86;89.53;101027.31;5039966;28;45529;-42
2022/10/14 02:03:21;;;;;;;;;4.33;4.33;;;;;15.85;89.97;101023.78;5039508;28;46016;-42
2022/10/14 02:05:53;;;;;;;;;4.00;4.00;;;;;15.86;89.94;101024.63;5039799;28;45441;-42
2022/10/14 02:08:24;;;;;;;;;4.67;4.67;;;;;15.84;90.11;101027.47;5039736;28;45348;-42
2022/10/14 02:11:08;;;;;;;;;6.33;6.33;;;;;15.89;89.31;101024.28;5039952;28;45430;-42
2022/10/14 02:14:11;;;;;;;;;6.00;5.00;;;;;15.90;89.62;101026.78;5039539;28;45354;-42
2022/10/14 02:16:50;;;;;;;;;9.00;8.00;;;;;15.89;89.89;101014.38;5039565;28;45471;-43
2022/10/14 02:19:23;;;;;;;;;9.33;7.00;;;;;15.90;89.73;101012.53;5038979;28;45436;-42
2022/10/14 02:22:09;;;;;;;;;8.33;6.33;;;;;15.87;89.95;101002.13;5039832;28;45424;-44
2022/10/14 02:24:41;;;;;;;;;8.33;8.33;;;;;15.79;89.71;100986.09;5039120;28;47121;-43
2022/10/14 02:27:12;;;;;;;;;4.33;3.33;;;;;15.90;90.09;101007.16;5039514;28;45186;-42
2022/10/14 02:29:40;;;;;;;;;8.67;6.67;;;;;15.91;90.19;101006.16;5039355;28;45388;-43
2022/10/14 02:32:07;;;;;;;;;9.33;6.00;;;;;15.82;90.10;100991.09;5039557;28;45436;-43
2022/10/14 02:34:35;;;;;;;;;12.00;6.67;;;;;15.96;89.95;101015.31;5039262;28;45439;-42
2022/10/14 02:37:01;;;;;;;;;9.67;4.33;;;;;15.96;89.92;101001.09;5039141;28;45367;-42
2022/10/14 02:39:31;;;;;;;;;6.00;6.00;;;;;15.99;89.98;100989.19;5039306;28;45491;-44
2022/10/14 02:41:57;;;;;;;;;14.33;7.00;;;;;15.97;89.61;100986.69;5039471;28;45383;-44
2022/10/14 02:44:23;;;;;;;;;9.00;8.67;;;;;16.02;89.98;100991.50;5039025;28;45408;-43
2022/10/14 02:46:48;;;;;;;;;11.33;7.33;;;;;16.03;89.95;100999.38;5039145;28;45464;-42
2022/10/14 02:49:14;;;;;;;;;7.67;4.67;;;;;16.04;89.50;100995.69;5039111;28;45466;-42
2022/10/14 02:51:40;;;;;;;;;7.67;6.67;;;;;16.05;89.83;100994.66;5039112;28;45452;-42
2022/10/14 02:54:05;;;;;;;;;8.00;8.00;;;;;16.07;89.68;100994.50;5038880;28;46311;-43
2022/10/14 02:56:30;;;;;;;;;10.67;7.67;;;;;16.07;89.86;100987.28;5038940;28;45328;-42
2022/10/14 02:58:56;;;;;;;;;6.33;5.67;;;;;16.09;89.55;100990.59;5039040;28;45281;-46
2022/10/14 03:01:21;;;;;;;;;8.00;8.00;;;;;16.09;89.70;100992.47;5039251;28;45261;-42
2022/10/14 03:03:46;;;;;;;;;9.00;8.67;;;;;16.11;89.54;100993.13;5038714;28;45422;-43
2022/10/14 03:06:12;;;;;;;;;12.00;6.00;;;;;16.08;89.55;100994.31;5038704;28;45292;-42
2022/10/14 03:08:37;;;;;;;;;10.67;7.00;;;;;16.14;89.55;100996.31;5038819;28;45464;-42
2022/10/14 03:11:02;;;;;;;;;5.00;5.00;;;;;16.15;89.09;100997.97;5038749;28;45419;-43
2022/10/14 03:13:28;;;;;;;;;9.00;7.33;;;;;16.15;89.11;100992.59;5038489;28;46059;-43
2022/10/14 03:15:53;;;;;;;;;14.33;9.67;;;;;16.10;89.27;100984.25;5039092;28;45456;-43
2022/10/14 03:18:19;;;;;;;;;11.33;8.33;;;;;16.15;89.50;100992.59;5038947;28;45395;-47
2022/10/14 03:20:45;;;;;;;;;10.33;6.33;;;;;16.12;89.42;100987.56;5038816;28;45478;-43
2022/10/14 03:23:11;;;;;;;;;8.00;5.67;;;;;16.12;89.33;100982.22;5037886;28;45385;-45
2022/10/14 03:25:38;;;;;;;;;9.33;7.00;;;;;16.14;89.36;100982.88;5038662;28;45214;-43
2022/10/14 03:28:03;;;;;;;;;9.33;8.33;;;;;16.17;89.36;100989.72;5038683;28;45383;-43
2022/10/14 03:30:28;;;;;;;;;9.00;4.00;;;;;16.15;88.66;100976.50;5038926;28;45352;-43
2022/10/14 03:32:54;;;;;;;;;6.00;4.00;;;;;16.12;88.28;100982.22;5038103;28;47257;-43
2022/10/14 03:35:20;;;;;;;;;4.00;4.00;;;;;16.14;89.20;100990.09;5038295;28;45573;-43
2022/10/14 03:37:45;;;;;;;;;7.33;5.00;;;;;16.13;88.59;100983.88;5038325;28;45308;-43
2022/10/14 03:40:11;;;;;;;;;7.00;4.67;;;;;16.03;89.27;100972.53;5038559;28;45369;-43
2022/10/14 03:42:36;;;;;;;;;5.00;4.00;;;;;16.15;89.43;100986.41;5038131;28;46308;-42
2022/10/14 03:45:02;;;;;;;;;3.00;3.00;;;;;16.03;88.86;100956.44;5037983;28;45412;-45
2022/10/14 03:47:28;;;;;;;;;4.33;4.00;;;;;16.13;89.52;100973.13;5038369;28;45316;-42
2022/10/14 03:49:53;;;;;;;;;9.00;3.00;;;;;16.14;89.00;100974.84;5038177;28;45432;-44
2022/10/14 03:52:19;;;;;;;;;4.00;3.00;;;;;16.14;88.99;100972.16;5038052;28;46353;-42
2022/10/14 03:54:44;;;;;;;;;9.00;5.00;;;;;16.14;89.25;100976.69;5037951;28;45415;-42
2022/10/14 03:57:09;;;;;;;;;2.50;2.50;;;;;16.13;89.58;100970.47;5038221;28;45377;-43
2022/10/14 03:59:35;;;;;;;;;5.00;3.00;;;;;16.11;88.84;100967.13;5038424;28;45282;-41
2022/10/14 04:02:00;;;;;;;;;3.00;3.00;;;;;16.13;89.58;100972.31;5037988;28;46541;-42
2022/10/14 04:04:25;;;;;;;;;4.33;3.33;;;;;16.13;88.94;100975.81;5038156;28;45346;-42
2022/10/14 04:06:50;;;;;;;;;6.00;2.00;;;;;16.15;88.07;100984.56;5038437;28;45368;-46
2022/10/14 04:09:16;;;;;;;;;2.25;2.25;;;;;16.14;88.64;100982.06;5038639;28;45221;-45
2022/10/14 04:11:41;;;;;;;;;4.50;3.00;;;;;16.14;88.42;100980.19;5037746;28;45747;-44
2022/10/14 04:14:07;;;;;;;;;4.00;4.00;;;;;16.13;88.34;100978.50;5038155;28;45448;-43
2022/10/14 04:16:32;;;;;;;;;3.00;1.50;;;;;16.14;88.06;100974.00;5038037;28;45267;-43
2022/10/14 04:18:58;;;;;;;;;2.50;2.50;;;;;16.15;87.56;100983.72;5020140;28;45532;-42
2022/10/14 04:21:24;;;;;;;;;3.50;3.50;;;;;16.04;87.39;100958.09;5037356;28;45493;-42
2022/10/14 04:23:49;;;;;;;;;3.25;2.00;;;;;16.15;87.47;100983.72;5037768;28;45333;-43
2022/10/14 04:26:15;;;;;;;;;1.00;1.00;;;;;16.15;87.46;100975.66;5037645;28;45428;-43
2022/10/14 04:28:41;;;;;;;;;3.75;2.00;;;;;16.15;87.41;100976.50;5037676;28;45427;-43
2022/10/14 04:31:07;;;;;;;;;1.00;0.75;;;;;16.16;86.57;100971.97;5037606;28;45975;-44
2022/10/14 04:33:33;;;;;;;;;1.75;1.00;;;;;16.13;85.96;100965.09;5037197;28;45356;-43
2022/10/14 04:36:01;;;;;;;;;1.25;1.00;;;;;16.06;85.86;100961.47;5037525;28;45321;-44
2022/10/14 04:38:27;;;;;;;;;0.75;0.75;;;;;16.08;85.93;100967.47;5037528;28;45323;-43
2022/10/14 04:40:52;;;;;;;;;1.00;1.00;;;;;16.07;85.95;100978.41;5037038;28;46531;-43
2022/10/14 04:43:18;;;;;;;;;0.00;0.00;;;;;16.05;85.70;100973.19;5037299;28;45325;-43
2022/10/14 04:45:43;;;;;;;;;3.50;1.50;;;;;16.03;85.92;100977.91;5037437;28;45476;-43
2022/10/14 04:48:09;;;;;;;;;1.25;1.25;;;;;16.02;85.78;100975.41;5037591;28;45281;-43
2022/10/14 04:50:34;;;;;;;;;3.00;1.75;;;;;15.96;86.02;100960.84;5036438;28;46102;-44
2022/10/14 04:52:59;;;;;;;;;1.25;1.25;;;;;16.00;85.67;100972.88;5036906;28;45503;-43
2022/10/14 04:55:24;;;;;;;;;2.00;2.00;;;;;15.95;85.67;100965.38;5037191;28;45313;-43
2022/10/14 04:57:50;;;;;;;;;1.00;1.00;;;;;16.00;85.36;100946.06;5037328;28;45465;-43
2022/10/14 05:00:15;;;;;;;;;1.00;1.00;;;;;15.99;84.86;100944.38;5037187;28;46025;-43
2022/10/14 05:02:41;;;;;;;;;1.50;1.50;;;;;15.97;84.94;100949.13;5018962;28;45412;-44
2022/10/14 05:05:07;;;;;;;;;1.00;1.00;;;;;15.96;85.23;100950.09;5036795;28;45483;-42
2022/10/14 05:07:33;;;;;;;;;1.75;1.00;;;;;15.93;85.19;100950.47;5037243;28;45238;-42
2022/10/14 05:09:59;;;;;;;;;1.00;1.00;;;;;15.94;85.24;100955.66;5036706;28;45396;-43
2022/10/14 05:12:25;;;;;;;;;4.25;1.25;;;;;15.93;85.16;100947.78;5036739;28;45362;-43
2022/10/14 05:14:50;;;;;;;;;1.00;1.00;;;;;15.93;85.33;100955.84;5035794;28;45282;-46
2022/10/14 05:17:15;;;;;;;;;1.00;1.00;;;;;15.94;85.10;100957.50;5036880;28;45489;-44
2022/10/14 05:19:41;;;;;;;;;1.75;1.25;;;;;15.93;85.33;100956.69;5036698;28;45983;-43
2022/10/14 05:22:06;;;;;;;;;1.00;1.00;;;;;15.94;85.08;100958.34;5036713;28;45257;-44
2022/10/14 05:24:31;;;;;;;;;1.50;1.50;;;;;15.93;85.08;100962.03;5037035;28;45147;-45
2022/10/14 05:26:57;;;;;;;;;5.75;2.50;;;;;15.92;85.33;100956.84;5036937;28;45261;-43
2022/10/14 05:29:22;;;;;;;;;1.50;1.50;;;;;15.94;84.93;100952.97;5036634;28;46249;-43
2022/10/14 05:31:47;;;;;;;;;1.00;1.00;;;;;15.94;84.78;100942.25;5036615;28;45228;-42
2022/10/14 05:34:13;;;;;;;;;2.00;2.00;;;;;15.95;84.91;100933.19;5036929;28;45728;-44
2022/10/14 05:36:38;;;;;;;;;2.00;2.00;;;;;15.94;84.82;100941.41;5036798;28;45381;-43
2022/10/14 05:39:06;;;;;;;;;2.00;0.00;;;;;15.96;84.86;100940.19;5036423;28;46059;-42
2022/10/14 05:41:31;;;;;;;;;2.00;1.00;;;;;15.93;84.69;100927.16;5036370;28;45509;-43
2022/10/14 05:43:57;;;;;;;;;1.00;1.00;;;;;16.00;84.51;100934.50;5036205;28;45428;-45
2022/10/14 05:46:22;;;;;;;;;1.25;1.25;;;;;16.01;84.49;100945.03;5036834;28;45371;-46
2022/10/14 05:48:48;;;;;;;;;1.00;1.00;;;;;16.03;84.26;100943.03;5036478;28;45300;-42
2022/10/14 05:51:14;;;;;;;;;1.00;1.00;;;;;16.02;84.14;100937.84;5036316;28;45417;-43
2022/10/14 05:53:39;;;;;;;;;2.25;2.00;;;;;15.98;84.07;100934.69;5036585;28;45225;-44
2022/10/14 05:56:07;;;;;;;;;4.75;3.00;;;;;16.05;84.18;100948.22;5036406;28;45298;-43
2022/10/14 05:58:33;;;;;;;;;2.50;2.50;;;;;16.05;83.99;100949.03;5036323;28;46373;-42
2022/10/14 06:01:03;;;;;;;;;1.75;1.75;;;;;16.06;84.38;100948.03;5036169;28;45456;-44
2022/10/14 06:03:28;;;;;;;;;2.75;2.00;;;;;16.07;84.23;100946.19;5018388;28;45281;-45
2022/10/14 06:05:54;;;;;;;;;2.00;2.00;;;;;16.07;84.45;100949.72;5036334;28;45481;-43
2022/10/14 06:08:21;;;;;;;;;3.67;3.00;;;;;16.06;84.41;100955.25;5018544;28;45403;-44
2022/10/14 06:10:46;;;;;;;;;4.00;2.33;;;;;16.09;84.04;100961.09;5036229;28;45326;-44
2022/10/14 06:13:11;;;;;;;;;5.33;4.00;;;;;16.09;84.19;100955.72;5036270;28;45218;-43
2022/10/14 06:15:37;;;;;;;;;3.00;3.00;;;;;16.08;84.38;100940.63;5036456;28;45479;-44
2022/10/14 06:18:03;;;;;;;;;4.33;4.33;;;;;16.08;84.29;100954.06;5035980;28;45198;-44
2022/10/14 06:20:28;;;;;;;;;5.00;5.00;;;;;16.07;84.44;100949.72;5036091;28;45458;-44
2022/10/14 06:22:54;;;;;;;;;8.00;3.00;;;;;16.04;84.35;100951.91;5036230;28;45506;-43
2022/10/14 06:25:19;;;;;;;;;6.00;3.00;;;;;16.09;84.54;100950.34;5036547;28;45503;-43
2022/10/14 06:27:45;;;;;;;;;4.00;4.00;;;;;16.08;84.50;100940.63;5039569;28;46639;-44
2022/10/14 06:30:11;;;;;;;;;6.00;4.67;;;;;16.10;84.35;100957.41;5039321;28;45336;-44
2022/10/14 06:32:36;;;;;;;;;5.33;5.00;;;;;16.11;84.19;100959.06;5039457;28;45205;-43
2022/10/14 06:35:02;;;;;;;;;6.67;5.00;;;;;16.11;84.42;100952.88;5039127;28;45329;-43
2022/10/14 06:37:27;;;;;;;;;4.75;4.50;;;;;16.11;84.29;100955.56;5039206;28;47025;-43
2022/10/14 06:39:53;;;;;;;;;5.75;3.75;;;;;16.15;84.14;100952.34;5039185;28;45385;-45
2022/10/14 06:42:18;;;;;;;;;4.50;4.00;;;;;16.18;83.88;100954.69;5039196;28;45201;-43
2022/10/14 06:44:44;;;;;;;;;3.00;3.00;;;;;16.20;84.06;100957.19;5039258;28;45300;-44
2022/10/14 06:47:09;;;;;;;;;3.00;3.00;;;;;16.23;83.99;100956.00;5039006;28;46218;-44
2022/10/14 06:49:35;;;;;;;;;7.50;4.25;;;;;16.25;83.89;100948.59;5039002;28;45258;-43
2022/10/14 06:52:00;;;;;;;;;5.00;5.00;;;;;16.29;83.66;100960.63;5038986;28;45376;-43
2022/10/14 06:54:25;;;;;;;;;4.00;4.00;;;;;16.32;83.50;100957.59;5039310;28;45335;-44
2022/10/14 06:56:51;;;;;;;;;4.00;4.00;;;;;16.33;83.24;100960.09;5039159;28;46129;-42
2022/10/14 06:59:16;;;;;;;;;5.25;3.50;;;;;16.27;83.08;100944.72;5039482;28;45293;-44
2022/10/14 07:01:41;;;;;;;;;5.00;3.75;;;;;16.38;82.94;100960.38;5039374;28;45447;-42
2022/10/14 07:04:07;;;;;;;;;3.75;3.00;;;;;16.37;82.63;100964.09;5039090;28;45424;-44
2022/10/14 07:06:32;;;;;;;;;4.50;3.50;;;;;16.35;82.22;100954.53;5038673;28;45399;-43
2022/10/14 07:08:57;;;;;;;;;5.00;2.00;;;;;16.43;82.20;100965.22;5038951;28;45369;-45
2022/10/14 07:11:23;;;;;;;;;3.00;3.00;;;;;16.48;81.93;100962.84;5038772;28;45321;-45
2022/10/14 07:13:48;;;;;;;;;3.50;2.75;;;;;16.51;81.90;100977.75;5038955;28;45284;-44
2022/10/14 07:16:13;;;;;;;;;4.25;2.50;;;;;16.52;81.83;100980.28;5038428;28;47032;-44
2022/10/14 07:18:39;;;;;;;;;4.25;2.75;;;;;16.54;81.65;100980.91;5036497;28;45446;-44
2022/10/14 07:21:05;;;;;;;;;2.00;2.00;;;;;16.50;81.07;100976.91;5038587;28;45474;-43
2022/10/14 07:23:31;;;;;;;;;7.00;3.25;;;;;16.56;81.13;100995.00;5038681;28;45436;-42
2022/10/14 07:25:57;;;;;;;;;4.50;2.25;;;;;16.53;80.77;100990.00;5038592;28;45395;-43
2022/10/14 07:28:23;;;;;;;;;2.50;2.50;;;;;16.49;80.59;100999.44;5038527;28;45224;-43
2022/10/14 07:31:09;;;;;;;;;3.00;1.25;;;;;16.46;79.92;101002.47;5038534;28;45363;-44
2022/10/14 07:33:36;;;;;;;;;1.25;1.00;;;;;16.43;79.69;100989.38;5028622;28;45352;-44
2022/10/14 07:36:08;;;;;;;;;3.25;1.00;;;;;16.41;79.79;100999.47;5017220;28;45475;-43
2022/10/14 07:38:34;;;;;;;;;1.00;1.00;;;;;16.38;79.64;100997.97;5024375;28;45496;-44
2022/10/14 07:41:06;;;;;;;;;7.75;2.75;;;;;16.40;79.91;101001.34;5032653;28;45328;-43
2022/10/14 07:43:32;;;;;;;;;3.00;2.25;;;;;16.31;79.87;100988.97;5029878;28;45931;-44
2022/10/14 07:46:06;;;;;;;;;1.50;1.50;;;;;16.43;79.88;101019.78;5035044;28;46396;-44
2022/10/14 07:48:33;;;;;;;;;2.00;2.00;;;;;16.41;79.38;101019.09;5031962;28;45557;-44
2022/10/14 07:50:58;;;;;;;;;3.75;1.00;;;;;16.41;79.20;101015.59;5034189;28;45548;-44
2022/10/14 07:53:24;;;;;;;;;4.00;2.25;;;;;16.39;79.77;101028.34;5033718;28;45425;-43
2022/10/14 07:55:53;;;;;;;;;2.75;2.00;;;;;16.36;79.30;101023.34;5034867;28;45461;-44
2022/10/14 07:58:24;;;;;;;;;3.25;1.00;;;;;16.32;78.89;101020.19;5031476;28;45398;-44
2022/10/14 08:00:50;;;;;;;;;0.50;0.50;;;;;16.33;79.08;101019.16;5035406;28;45392;-44
2022/10/14 08:03:18;;;;;;;;;2.00;2.00;;;;;16.32;78.95;101011.28;5035131;28;45575;-43
2022/10/14 08:05:44;;;;;;;;;1.00;1.00;;;;;16.32;78.63;101022.88;5027786;28;45479;-44
2022/10/14 08:08:10;;;;;;;;;2.00;1.00;;;;;16.24;78.34;101001.44;5029850;28;45751;-43
2022/10/14 08:10:36;;;;;;;;;1.00;1.00;;;;;16.34;78.25;101033.41;5034954;28;45508;-44
2022/10/14 08:13:02;;;;;;;;;1.25;0.75;;;;;16.35;78.24;101038.63;5034226;28;45365;-43
2022/10/14 08:15:32;;;;;;;;;2.00;0.00;;;;;16.37;78.06;101036.59;5033602;28;46377;-44
2022/10/14 08:17:57;;;;;;;;;1.75;1.00;;;;;16.39;77.77;101031.03;5034668;28;45522;-44
2022/10/14 08:20:23;;;;;;;;;1.00;1.00;;;;;16.42;77.74;101042.25;5029270;28;45466;-44
2022/10/14 08:22:48;;;;;;;;;1.00;1.00;;;;;16.42;77.79;101038.72;5034808;28;45372;-43
2022/10/14 08:25:14;;;;;;;;;0.75;0.75;;;;;16.44;76.67;101040.25;5034506;28;46294;-44
2022/10/14 08:27:39;;;;;;;;;1.25;1.00;;;;;16.45;76.78;101033.00;5030390;28;45330;-43
2022/10/14 08:30:05;;;;;;;;;1.00;1.00;;;;;16.46;76.30;101035.50;5037259;28;45407;-42
2022/10/14 08:32:30;;;;;;;;;2.50;1.00;;;;;16.45;76.28;101028.47;5037103;28;45305;-43
2022/10/14 08:34:55;;;;;;;;;1.00;0.75;;;;;16.53;76.58;101046.41;5037191;28;45431;-44
2022/10/14 08:37:21;;;;;;;;;1.75;1.00;;;;;16.49;76.25;101031.66;5036915;28;45423;-43
2022/10/14 08:39:46;;;;;;;;;1.50;1.50;;;;;16.58;76.28;101040.47;5037083;28;45406;-42
2022/10/14 08:42:22;;;;;;;;;1.50;1.00;;;;;16.56;75.90;101043.34;5037269;28;45482;-42
2022/10/14 08:44:55;;;;;;;;;2.00;0.00;;;;;16.58;76.09;101038.63;5036864;28;45407;-43
2022/10/14 08:47:28;;;;;;;;;0.75;0.75;;;;;16.55;75.90;101030.91;5036970;28;45336;-44
2022/10/14 08:50:02;;;;;;;;;1.00;1.00;;;;;16.59;76.02;101036.78;5036845;28;45332;-44
2022/10/14 08:52:36;;;;;;;;;2.00;0.75;;;;;16.62;75.97;101041.78;5037151;28;45169;-44
2022/10/14 08:55:13;;;;;;;;;1.00;1.00;;;;;16.66;75.53;101037.75;5036419;28;45403;-44
2022/10/14 08:57:47;;;;;;;;;3.00;1.00;;;;;16.68;75.63;101033.00;5036948;28;45369;-43
2022/10/14 09:00:19;;;;;;;;;1.00;1.00;;;;;16.74;75.91;101039.56;5037171;28;45479;-43
2022/10/14 09:02:48;;;;;;;;;1.00;1.00;;;;;16.76;75.73;101032.16;5037035;28;45274;-43
2022/10/14 09:05:21;;;;;;;;;1.00;1.00;;;;;16.83;75.65;101033.09;5036587;28;45331;-43
2022/10/14 09:07:48;;;;;;;;;3.00;1.75;;;;;16.85;75.26;101026.50;5036543;28;45253;-43
2022/10/14 09:10:22;;;;;;;;;2.00;2.00;;;;;16.88;75.02;101033.41;5036947;28;45483;-45
2022/10/14 09:12:48;;;;;;;;;3.00;1.25;;;;;16.78;75.03;101014.00;5036886;28;45215;-42
2022/10/14 09:15:23;;;;;;;;;3.75;0.50;;;;;16.92;74.91;101032.00;5035685;28;45585;-43
2022/10/14 09:18:04;;;;;;;;;3.50;1.00;;;;;16.95;75.30;101023.59;5036638;28;45258;-43
2022/10/14 09:20:29;;;;;;;;;3.00;2.00;;;;;16.95;75.21;101023.59;5036795;28;45254;-42
2022/10/14 09:23:04;;;;;;;;;1.75;1.00;;;;;16.99;75.00;101016.84;5036503;28;45467;-43
2022/10/14 09:25:33;;;;;;;;;3.00;3.00;;;;;16.99;75.01;101011.47;5036354;28;45323;-45
2022/10/14 09:27:59;;;;;;;;;1.25;1.25;;;;;16.90;75.12;100991.91;5036489;28;45361;-41
2022/10/14 09:30:29;;;;;;;;;4.75;4.00;;;;;17.05;75.23;101015.28;5036303;28;45443;-41
2022/10/14 09:32:54;;;;;;;;;3.00;3.00;;;;;17.04;75.54;101010.91;5036626;28;45389;-43
2022/10/14 09:35:49;;;;;;;;;3.00;3.00;;;;;17.08;75.59;101013.06;5035990;28;46093;-43
2022/10/14 09:38:15;;;;;;;;;3.50;3.50;;;;;17.09;75.46;101020.09;4974561;28;45557;-43
2022/10/14 09:40:43;;;;;;;;;4.25;4.00;;;;;17.08;75.84;101013.06;4974600;28;45275;-44
2022/10/14 09:43:09;;;;;;;;;4.75;3.00;;;;;17.07;76.22;101008.72;4974194;28;45829;-42
2022/10/14 09:45:46;;;;;;;;;2.75;2.75;;;;;17.06;75.97;101004.31;4974496;28;45978;-41
2022/10/14 09:48:38;;;;;;;;;4.50;2.50;;;;;17.02;75.85;101000.34;4974505;28;45470;-43
2022/10/14 09:51:08;;;;;;;;;4.25;3.00;;;;;17.00;75.74;101015.81;4967194;28;45556;-44
2022/10/14 09:53:44;;;;;;;;;5.25;2.75;;;;;16.84;76.02;100992.63;4974503;28;45521;-43
2022/10/14 09:56:10;;;;;;;;;3.00;2.00;;;;;16.95;76.01;101016.38;4974197;28;47236;-43
2022/10/14 09:58:52;;;;;;;;;5.75;3.00;;;;;16.95;76.33;101016.38;4974405;28;45345;-43
2022/10/14 10:01:20;;;;;;;;;3.75;3.25;;;;;16.96;76.17;101009.97;4976128;28;45338;-43
2022/10/14 10:03:48;;;;;;;;;8.75;4.25;;;;;16.98;76.53;101003.56;4978242;28;45492;-41
2022/10/14 10:06:19;;;;;;;;;4.25;3.25;;;;;17.03;76.12;101002.03;4977870;28;45430;-41
2022/10/14 10:08:56;;;;;;;;;4.25;4.25;;;;;17.09;76.00;101001.28;4977391;28;45517;-44
2022/10/14 10:11:37;;;;;;;;;5.00;5.00;;;;;17.14;75.64;101003.41;4977773;28;45369;-44
2022/10/14 10:14:24;;;;;;;;;3.25;3.00;;;;;17.29;75.29;100998.06;4992022;28;45528;-44
2022/10/14 10:17:09;;;;;;;;;4.50;3.75;;;;;17.41;74.92;101002.81;5038903;28;46192;-44
2022/10/14 10:19:43;;;;;;;;;4.00;4.00;;;;;17.46;74.64;101004.94;5021423;28;45398;-43
2022/10/14 10:22:17;;;;;;;;;3.00;3.00;;;;;17.48;74.70;101002.06;5039160;28;45467;-45
2022/10/14 10:24:44;;;;;;;;;6.75;4.00;;;;;17.37;74.56;100971.09;5039470;28;45384;-45
2022/10/14 10:27:19;;;;;;;;;5.00;4.00;;;;;17.54;74.27;100995.94;5038754;28;45575;-44
2022/10/14 10:29:45;;;;;;;;;3.75;3.00;;;;;17.54;74.32;100996.78;5037668;28;45444;-44
2022/10/14 10:32:21;;;;;;;;;6.00;3.00;;;;;17.61;74.33;100995.03;5039042;28;45759;-43
2022/10/14 10:35:09;;;;;;;;;5.25;3.75;;;;;17.64;74.00;100989.25;5039131;28;45416;-43
2022/10/14 10:37:47;;;;;;;;;7.25;4.00;;;;;17.67;73.22;100980.81;5039142;28;45319;-44
2022/10/14 10:40:15;;;;;;;;;3.00;3.00;;;;;17.70;72.85;100982.31;5039053;28;45549;-44
2022/10/14 10:43:05;;;;;;;;;4.00;2.25;;;;;17.76;73.51;100981.56;5039023;28;45309;-45
2022/10/14 10:45:53;;;;;;;;;4.00;4.00;;;;;17.91;73.33;100978.88;5039303;28;45491;-43
2022/10/14 10:48:41;;;;;;;;;4.25;2.25;;;;;18.04;72.47;100981.72;5038785;28;46194;-42
2022/10/14 10:51:22;;;;;;;;;3.00;3.00;;;;;18.12;72.39;100972.69;5038424;28;45451;-44
2022/10/14 10:54:20;;;;;;;;;7.00;4.00;;;;;18.13;71.88;100967.09;5038745;28;45458;-42
2022/10/14 10:57:30;;;;;;;;;3.00;3.00;;;;;18.15;72.42;100956.97;5039060;28;45420;-43
2022/10/14 11:00:01;;;;;;;;;4.75;3.00;;;;;18.18;71.82;100950.38;5038388;28;46206;-44
2022/10/14 11:02:38;;;;;;;;;3.00;3.00;;;;;18.24;71.50;100941.50;5038490;28;45253;-43
2022/10/14 11:05:16;;;;;;;;;4.50;3.00;;;;;18.24;71.54;100928.03;5038566;28;45447;-42
2022/10/14 11:14:14;;;;;;;;;5.00;3.75;;;;;18.00;72.63;100948.13;5037533;28;45457;-42
2022/10/14 11:17:02;;;;;;;;;4.75;4.00;;;;;17.93;72.30;100933.75;5038363;28;45475;-42
2022/10/14 11:19:34;;;;;;;;;4.00;4.00;;;;;17.87;72.92;100934.53;5038531;28;45464;-42
2022/10/14 11:22:37;;;;;;;;;4.75;3.00;;;;;17.75;73.23;100931.47;5037992;28;46374;-41
2022/10/14 11:25:02;;;;;;;;;5.00;4.25;;;;;17.69;73.07;100930.31;5038044;28;45437;-41
2022/10/14 11:27:46;;;;;;;;;11.00;6.00;;;;;17.64;73.61;100913.09;5038215;28;45273;-42
2022/10/14 11:30:24;;;;;;;;;4.25;4.25;;;;;17.70;73.35;100910.50;5037774;28;45550;-41
2022/10/14 11:33:19;;;;;;;;;4.00;4.00;;;;;17.76;73.64;100894.63;5037720;28;47193;-41
2022/10/14 11:36:14;;;;;;;;;6.50;5.00;;;;;17.79;73.40;100908.56;5037965;28;45456;-40
2022/10/14 11:38:42;;;;;;;;;5.25;5.00;;;;;17.80;73.81;100898.63;5038305;28;45417;-42
2022/10/14 11:41:31;;;;;;;;;5.75;5.75;;;;;17.82;74.06;100892.00;5038397;28;45217;-42
2022/10/14 11:44:16;;;;;;;;;7.25;5.75;;;;;17.76;73.73;100889.25;5038304;28;46098;-42